Time;durP1;ratioP1;P1;durP2;ratioP2;P2;SDS_P1;SDS_P2;PMS_P1;PMS_P2;Temp;Humidity;BMP_temperature;BMP_pressure;BME280_temperature;BME280_humidity;BME280_pressure;Samples;Min_cycle;Max_cycle;Signal;HPM_P1;HPM_P2
2022/07/31 00:02:11;;;;;;;6.55;4.07;;;20.30;99.90;;;;;;4989751;28;20081;-75
2022/07/31 00:04:39;;;;;;;4.65;4.20;;;20.30;99.90;;;;;;4992430;28;20042;-76
2022/07/31 00:07:06;;;;;;;5.30;4.22;;;20.30;99.90;;;;;;4977697;28;20055;-76
2022/07/31 00:09:35;;;;;;;7.35;4.30;;;20.30;99.90;;;;;;4978380;28;20113;-74
2022/07/31 00:12:02;;;;;;;6.45;4.80;;;20.20;99.90;;;;;;4978139;28;20050;-75
2022/07/31 00:14:29;;;;;;;7.93;4.72;;;20.20;99.90;;;;;;4976410;28;20070;-74
2022/07/31 00:16:57;;;;;;;8.65;4.72;;;20.20;99.90;;;;;;4976163;28;20053;-77
2022/07/31 00:19:24;;;;;;;6.15;4.57;;;20.20;99.90;;;;;;4979508;28;20490;-74
2022/07/31 00:21:52;;;;;;;7.40;4.57;;;20.20;99.90;;;;;;4980403;28;20461;-74
2022/07/31 00:24:19;;;;;;;5.22;4.72;;;20.20;99.90;;;;;;4977956;28;20066;-75
2022/07/31 00:26:47;;;;;;;5.93;5.03;;;20.20;99.90;;;;;;4977083;28;20101;-74
2022/07/31 00:29:15;;;;;;;5.60;4.95;;;20.20;99.90;;;;;;4987318;28;20047;-76
2022/07/31 00:31:43;;;;;;;9.40;5.70;;;20.10;99.90;;;;;;4999288;28;20047;-76
2022/07/31 00:34:11;;;;;;;7.72;5.25;;;20.10;99.90;;;;;;4982606;28;20057;-75
2022/07/31 00:36:38;;;;;;;11.38;6.93;;;20.10;99.90;;;;;;4982783;28;20051;-77
2022/07/31 00:39:05;;;;;;;9.18;5.93;;;20.10;99.90;;;;;;4978080;28;20511;-76
2022/07/31 00:41:41;;;;;;;9.25;5.90;;;20.10;99.90;;;;;;4978202;28;20047;-75
2022/07/31 00:44:10;;;;;;;11.02;5.80;;;20.10;99.90;;;;;;4975941;28;20141;-75
2022/07/31 00:46:37;;;;;;;12.57;6.93;;;20.10;99.90;;;;;;4975129;28;20050;-76
2022/07/31 00:49:07;;;;;;;11.23;6.85;;;20.00;99.90;;;;;;4977044;28;20446;-76
2022/07/31 00:51:34;;;;;;;12.73;6.85;;;20.00;99.90;;;;;;4957988;28;20372;-76
2022/07/31 00:54:02;;;;;;;11.10;7.50;;;19.90;99.90;;;;;;4966605;28;20047;-76
2022/07/31 00:56:29;;;;;;;11.63;6.93;;;19.90;99.90;;;;;;4972552;28;20043;-75
2022/07/31 00:58:56;;;;;;;9.20;6.60;;;19.80;99.90;;;;;;4971439;29;20043;-75
2022/07/31 01:01:26;;;;;;;8.93;6.22;;;19.80;99.90;;;;;;5005284;28;20086;-75
2022/07/31 01:03:53;;;;;;;9.70;6.20;;;19.80;99.90;;;;;;4992341;28;20045;-75
2022/07/31 01:06:21;;;;;;;8.32;6.18;;;19.80;99.90;;;;;;4986166;28;20053;-74
2022/07/31 01:08:48;;;;;;;8.45;5.50;;;19.80;99.90;;;;;;4975634;28;20081;-77
2022/07/31 01:11:21;;;;;;;5.93;5.15;;;19.70;99.90;;;;;;4975319;28;20047;-75
2022/07/31 01:13:54;;;;;;;6.43;5.05;;;19.70;99.90;;;;;;4974894;28;20046;-76
2022/07/31 01:16:23;;;;;;;6.13;5.53;;;19.70;99.90;;;;;;4975304;28;20455;-76
2022/07/31 01:18:54;;;;;;;7.20;5.18;;;19.60;99.90;;;;;;4984372;28;20047;-76
2022/07/31 01:21:43;;;;;;;7.38;5.80;;;19.60;99.90;;;;;;4982916;28;20058;-76
2022/07/31 01:24:27;;;;;;;6.47;5.18;;;19.50;99.90;;;;;;4976294;28;20127;-76
2022/07/31 01:27:04;;;;;;;7.78;5.90;;;19.50;99.90;;;;;;4977040;28;20059;-74
2022/07/31 01:29:40;;;;;;;8.90;5.78;;;19.50;99.90;;;;;;4977388;28;20063;-75
2022/07/31 01:32:10;;;;;;;8.50;6.28;;;19.50;99.90;;;;;;4975951;28;20055;-77
2022/07/31 01:34:44;;;;;;;8.35;5.82;;;19.50;99.90;;;;;;4975123;28;20043;-76
2022/07/31 01:37:19;;;;;;;10.15;6.18;;;19.50;99.90;;;;;;4974882;28;20129;-75
2022/07/31 01:39:52;;;;;;;6.65;5.88;;;19.50;99.90;;;;;;4976170;28;20138;-75
2022/07/31 01:42:21;;;;;;;8.13;5.75;;;19.50;99.90;;;;;;4975345;28;20042;-77
2022/07/31 01:44:55;;;;;;;6.80;5.32;;;19.50;99.90;;;;;;4974995;28;20078;-77
2022/07/31 01:47:26;;;;;;;9.55;5.53;;;19.60;99.90;;;;;;4975478;28;20106;-75
2022/07/31 01:49:55;;;;;;;8.60;5.88;;;19.50;99.90;;;;;;4974524;28;20046;-77
2022/07/31 01:52:28;;;;;;;6.68;5.22;;;19.50;99.90;;;;;;4974706;28;20042;-74
2022/07/31 01:54:57;;;;;;;7.82;5.68;;;19.40;99.90;;;;;;4970496;28;20147;-76
2022/07/31 01:57:26;;;;;;;6.85;5.35;;;19.40;99.90;;;;;;4957212;28;20047;-75
2022/07/31 02:00:01;;;;;;;7.75;5.45;;;19.30;99.90;;;;;;4955499;28;20133;-75
2022/07/31 02:02:49;;;;;;;7.07;5.47;;;19.30;99.90;;;;;;4955836;28;20063;-77
2022/07/31 02:05:18;;;;;;;7.45;5.65;;;19.20;99.90;;;;;;4955483;28;20070;-77
2022/07/31 02:07:47;;;;;;;8.00;5.43;;;19.20;99.90;;;;;;4964725;28;20110;-76
2022/07/31 02:10:17;;;;;;;8.82;5.95;;;19.20;99.90;;;;;;4974720;28;20050;-74
2022/07/31 02:12:46;;;;;;;7.68;5.65;;;19.20;99.90;;;;;;4974966;28;20122;-75
2022/07/31 02:15:17;;;;;;;7.97;5.90;;;19.10;99.90;;;;;;4974478;28;20047;-78
2022/07/31 02:17:47;;;;;;;6.57;5.90;;;19.10;99.90;;;;;;4974383;28;20070;-77
2022/07/31 02:20:24;;;;;;;7.97;5.38;;;19.00;99.90;;;;;;4976725;28;20106;-76
2022/07/31 02:22:57;;;;;;;7.40;6.13;;;19.00;99.90;;;;;;4976286;28;20062;-76
2022/07/31 02:25:25;;;;;;;7.30;6.00;;;18.90;99.90;;;;;;4974523;28;20134;-76
2022/07/31 02:27:55;;;;;;;12.15;6.03;;;18.90;99.90;;;;;;4976403;28;20047;-75
2022/07/31 02:30:28;;;;;;;8.85;5.95;;;18.90;99.90;;;;;;4976097;28;20138;-76
2022/07/31 02:32:55;;;;;;;7.35;5.65;;;18.90;99.90;;;;;;4975743;28;20450;-76
2022/07/31 02:35:24;;;;;;;6.95;4.97;;;18.80;99.90;;;;;;4973675;28;20054;-76
2022/07/31 02:37:55;;;;;;;7.57;5.30;;;18.80;99.90;;;;;;4973930;28;20058;-77
2022/07/31 02:40:24;;;;;;;6.53;5.28;;;18.80;99.90;;;;;;4976595;28;20047;-76
2022/07/31 02:42:52;;;;;;;8.85;5.78;;;18.70;99.90;;;;;;4977969;28;20081;-77
2022/07/31 02:45:22;;;;;;;7.60;5.10;;;18.70;99.90;;;;;;4977573;28;20047;-76
2022/07/31 02:47:51;;;;;;;7.55;6.00;;;18.70;99.90;;;;;;4977681;28;20053;-76
2022/07/31 02:50:19;;;;;;;6.93;6.22;;;18.60;99.90;;;;;;4978018;28;20410;-75
2022/07/31 02:52:48;;;;;;;7.32;6.45;;;18.60;99.90;;;;;;4977555;28;20054;-75
2022/07/31 02:55:16;;;;;;;9.00;6.05;;;18.50;99.90;;;;;;4978655;28;20035;-77
2022/07/31 02:57:43;;;;;;;6.32;5.38;;;18.50;99.90;;;;;;4977397;28;20081;-76
2022/07/31 03:00:21;;;;;;;6.75;5.55;;;18.50;99.90;;;;;;4993709;28;20479;-75
2022/07/31 03:02:52;;;;;;;10.05;6.38;;;18.50;99.90;;;;;;4977534;28;20055;-78
2022/07/31 03:05:20;;;;;;;10.20;6.00;;;18.50;99.90;;;;;;4998520;28;20047;-76
2022/07/31 03:07:47;;;;;;;7.72;5.93;;;18.40;99.90;;;;;;5004523;28;20061;-75
2022/07/31 03:10:15;;;;;;;7.97;6.45;;;18.40;99.90;;;;;;4980532;28;20057;-77
2022/07/31 03:12:58;;;;;;;10.40;7.10;;;18.40;99.90;;;;;;4977767;28;20042;-75
2022/07/31 03:15:27;;;;;;;12.95;7.53;;;18.30;99.90;;;;;;4977906;28;20076;-75
2022/07/31 03:17:57;;;;;;;7.55;6.72;;;18.30;99.90;;;;;;4977542;28;20445;-74
2022/07/31 03:20:34;;;;;;;10.45;7.03;;;18.30;99.90;;;;;;4977950;28;20102;-77
2022/07/31 03:23:02;;;;;;;7.70;6.90;;;18.30;99.90;;;;;;4977038;28;20502;-75
2022/07/31 03:25:33;;;;;;;10.98;7.05;;;18.20;99.90;;;;;;4977924;28;20506;-76
2022/07/31 03:28:00;;;;;;;10.85;6.80;;;18.30;99.90;;;;;;4977754;28;20070;-76
2022/07/31 03:30:28;;;;;;;8.57;6.00;;;18.20;99.90;;;;;;4977638;28;20138;-75
2022/07/31 03:33:02;;;;;;;9.75;6.35;;;18.20;99.90;;;;;;4977096;28;20058;-78
2022/07/31 03:35:30;;;;;;;9.38;6.90;;;18.20;99.90;;;;;;4977253;28;20494;-75
2022/07/31 03:37:58;;;;;;;7.93;6.80;;;18.20;99.90;;;;;;5015448;23;20099;-74
2022/07/31 03:40:25;;;;;;;9.25;7.43;;;18.20;99.90;;;;;;5018171;28;20091;-74
2022/07/31 03:42:55;;;;;;;9.27;6.78;;;18.10;99.90;;;;;;5018549;28;20051;-74
2022/07/31 03:45:24;;;;;;;9.70;6.80;;;18.20;99.90;;;;;;5018292;28;20053;-75
2022/07/31 03:47:52;;;;;;;12.27;7.20;;;18.30;99.90;;;;;;5018871;28;20049;-76
2022/07/31 03:50:21;;;;;;;9.30;7.75;;;18.30;99.90;;;;;;5018173;28;20045;-75
2022/07/31 03:52:50;;;;;;;10.15;8.10;;;18.30;99.90;;;;;;5018581;28;20073;-74
2022/07/31 03:55:19;;;;;;;9.60;7.13;;;18.40;99.90;;;;;;5015007;28;20509;-74
2022/07/31 03:57:46;;;;;;;9.35;7.03;;;18.40;99.90;;;;;;5014746;28;20132;-76
2022/07/31 04:00:15;;;;;;;9.90;7.30;;;18.50;99.90;;;;;;5050087;28;20033;-74
2022/07/31 04:02:46;;;;;;;9.38;7.35;;;18.60;99.90;;;;;;4998492;28;20084;-75
2022/07/31 04:05:41;;;;;;;13.45;6.90;;;18.70;99.90;;;;;;5016869;28;20073;-74
2022/07/31 04:08:09;;;;;;;8.80;6.95;;;18.70;99.90;;;;;;5017984;28;20523;-75
2022/07/31 04:10:38;;;;;;;9.32;7.10;;;18.70;99.90;;;;;;5019318;28;20045;-75
2022/07/31 04:13:07;;;;;;;8.50;7.10;;;18.70;99.90;;;;;;5028117;28;20047;-74
2022/07/31 04:15:34;;;;;;;9.82;7.75;;;18.70;99.90;;;;;;5034373;28;20045;-76
2022/07/31 04:18:02;;;;;;;9.55;7.95;;;18.80;99.90;;;;;;5036892;28;20056;-74
2022/07/31 04:20:40;;;;;;;12.45;7.47;;;19.00;99.90;;;;;;5036869;28;20060;-75
2022/07/31 04:23:07;;;;;;;11.35;6.85;;;19.10;99.90;;;;;;5036500;28;20515;-75
2022/07/31 04:25:53;;;;;;;11.82;6.82;;;19.20;99.90;;;;;;5043418;28;20132;-76
2022/07/31 04:28:29;;;;;;;233.40;42.30;;;19.30;99.90;;;;;;5034953;28;20057;-75
2022/07/31 04:30:57;;;;;;;17.33;8.35;;;19.40;99.90;;;;;;5020045;28;20050;-74
2022/07/31 04:33:25;;;;;;;12.25;8.30;;;19.40;99.90;;;;;;5036339;28;20037;-73
2022/07/31 04:35:54;;;;;;;13.80;8.27;;;19.50;99.90;;;;;;5023115;28;20594;-75
2022/07/31 04:38:21;;;;;;;10.45;7.95;;;19.60;99.90;;;;;;5013913;28;20432;-74
2022/07/31 04:40:50;;;;;;;12.93;7.00;;;19.70;99.90;;;;;;5014783;28;20072;-75
2022/07/31 04:43:18;;;;;;;15.10;7.40;;;19.90;99.90;;;;;;5014178;28;20045;-76
2022/07/31 04:45:45;;;;;;;14.80;7.15;;;20.10;99.90;;;;;;5014077;28;20041;-75
2022/07/31 04:48:13;;;;;;;9.18;5.63;;;20.40;99.90;;;;;;5015457;28;20076;-75
2022/07/31 04:50:40;;;;;;;9.05;5.63;;;21.20;99.90;;;;;;5013978;28;20136;-75
2022/07/31 04:53:09;;;;;;;8.80;5.65;;;22.00;99.90;;;;;;5014927;28;20072;-75
2022/07/31 04:55:40;;;;;;;9.23;5.70;;;22.50;99.90;;;;;;5003086;28;20050;-75
2022/07/31 04:58:07;;;;;;;9.30;5.88;;;22.50;99.90;;;;;;4994052;28;20042;-74
2022/07/31 05:00:34;;;;;;;7.20;5.35;;;22.40;99.90;;;;;;5004905;28;20061;-74
2022/07/31 05:03:03;;;;;;;6.25;5.00;;;22.20;99.90;;;;;;5012776;28;20045;-75
2022/07/31 05:05:31;;;;;;;10.05;6.43;;;22.20;99.90;;;;;;5014434;28;20042;-75
2022/07/31 05:08:00;;;;;;;10.73;7.00;;;22.30;99.90;;;;;;5013868;28;20045;-75
2022/07/31 05:13:24;;;;;;;10.95;6.20;;;22.30;99.90;;;;;;5013473;28;20141;-76
2022/07/31 05:15:51;;;;;;;10.60;5.95;;;22.50;99.90;;;;;;5013394;28;20037;-75
2022/07/31 05:18:18;;;;;;;10.98;5.75;;;22.50;99.90;;;;;;5013548;28;20100;-75
2022/07/31 05:21:04;;;;;;;8.63;6.45;;;22.60;99.90;;;;;;5015011;28;20190;-75
2022/07/31 05:23:50;;;;;;;8.93;6.68;;;23.10;99.90;;;;;;5013628;28;20046;-75
2022/07/31 05:26:27;;;;;;;11.27;6.07;;;23.90;99.90;;;;;;5013514;28;20402;-76
2022/07/31 05:28:57;;;;;;;6.85;6.18;;;24.80;99.90;;;;;;5013593;28;20452;-75
2022/07/31 05:31:24;;;;;;;9.55;6.38;;;25.00;99.90;;;;;;5012932;28;20054;-75
2022/07/31 05:33:51;;;;;;;7.88;7.18;;;24.70;99.90;;;;;;5015373;28;20046;-75
2022/07/31 05:36:20;;;;;;;8.23;6.32;;;24.40;99.90;;;;;;5013611;28;20064;-76
2022/07/31 05:38:47;;;;;;;6.72;5.70;;;24.30;99.90;;;;;;5013724;28;20065;-75
2022/07/31 05:41:34;;;;;;;6.57;5.88;;;23.90;99.90;;;;;;5014918;28;20579;-76
2022/07/31 05:44:14;;;;;;;8.15;5.53;;;23.60;99.90;;;;;;5014549;28;20065;-74
2022/07/31 05:46:45;;;;;;;10.20;7.55;;;23.60;99.90;;;;;;5013264;28;20038;-76
2022/07/31 05:49:13;;;;;;;13.00;11.35;;;23.50;99.90;;;;;;5012739;28;20073;-75
2022/07/31 05:51:43;;;;;;;16.15;14.43;;;23.60;99.90;;;;;;5013393;28;20042;-76
2022/07/31 05:54:11;;;;;;;17.95;14.77;;;23.80;99.90;;;;;;5013240;28;20050;-77
2022/07/31 05:56:58;;;;;;;20.42;14.45;;;24.00;99.90;;;;;;4994994;28;20053;-76
2022/07/31 05:59:34;;;;;;;17.90;15.93;;;24.50;99.90;;;;;;4995728;28;20049;-75
2022/07/31 06:02:01;;;;;;;16.45;14.75;;;25.00;99.90;;;;;;5013113;28;20049;-76
2022/07/31 06:04:31;;;;;;;16.25;14.65;;;25.40;99.90;;;;;;5012395;28;20042;-76
2022/07/31 06:06:59;;;;;;;17.33;15.27;;;25.70;99.90;;;;;;5013044;28;20053;-75
2022/07/31 06:09:27;;;;;;;17.92;16.10;;;26.20;99.90;;;;;;5012924;28;20049;-75
2022/07/31 06:11:55;;;;;;;18.13;16.00;;;26.30;99.90;;;;;;5015170;28;20096;-75
2022/07/31 06:14:23;;;;;;;18.77;16.35;;;26.40;99.90;;;;;;5021439;28;20038;-75
2022/07/31 06:17:17;;;;;;;18.55;16.65;;;26.20;99.90;;;;;;5032082;28;20041;-75
2022/07/31 06:19:45;;;;;;;20.88;18.73;;;25.80;99.90;;;;;;5032437;28;20060;-75
2022/07/31 06:22:13;;;;;;;21.27;18.95;;;25.20;99.90;;;;;;5037921;28;20034;-74
2022/07/31 06:24:40;;;;;;;22.20;19.90;;;24.70;99.90;;;;;;5028260;28;20060;-74
2022/07/31 06:27:08;;;;;;;24.77;21.80;;;24.50;99.90;;;;;;5023773;28;20046;-75
2022/07/31 06:29:36;;;;;;;23.88;21.38;;;24.50;99.90;;;;;;5019546;28;20057;-75
2022/07/31 06:32:05;;;;;;;24.27;21.83;;;24.40;99.90;;;;;;5017003;28;20054;-74
2022/07/31 06:34:32;;;;;;;23.65;21.20;;;24.60;99.90;;;;;;5016985;28;20432;-75
2022/07/31 06:37:00;;;;;;;22.55;19.75;;;24.40;99.90;;;;;;5016524;28;20141;-76
2022/07/31 06:39:27;;;;;;;21.13;18.77;;;24.50;99.90;;;;;;5027742;28;20079;-75
2022/07/31 06:42:18;;;;;;;24.58;20.35;;;24.90;99.90;;;;;;5038369;28;20055;-74
2022/07/31 06:45:06;;;;;;;23.63;21.13;;;25.60;99.90;;;;;;5037806;28;20078;-76
2022/07/31 06:47:56;;;;;;;22.67;20.25;;;25.60;99.90;;;;;;5020167;28;20107;-75
2022/07/31 06:50:58;;;;;;;19.83;17.35;;;25.70;99.90;;;;;;5035856;28;20119;-75
2022/07/31 06:53:40;;;;;;;18.65;16.65;;;25.60;99.90;;;;;;5022677;28;20045;-75
2022/07/31 06:56:08;;;;;;;17.83;16.00;;;25.60;99.90;;;;;;5047029;28;20101;-75
2022/07/31 06:58:36;;;;;;;19.95;16.13;;;25.60;99.90;;;;;;5043528;28;20053;-75
2022/07/31 07:01:05;;;;;;;20.70;15.75;;;25.50;99.90;;;;;;5029968;28;20080;-74
2022/07/31 07:03:32;;;;;;;18.88;15.75;;;25.70;99.90;;;;;;5041826;28;20049;-74
2022/07/31 07:06:00;;;;;;;20.80;15.77;;;25.90;99.90;;;;;;5022257;28;20042;-75
2022/07/31 07:08:27;;;;;;;18.77;15.20;;;26.10;99.90;;;;;;5020789;28;20049;-75
2022/07/31 07:10:55;;;;;;;23.83;16.80;;;26.30;99.90;;;;;;5029964;28;20056;-75
2022/07/31 07:13:31;;;;;;;21.05;15.55;;;26.50;99.90;;;;;;5037817;28;20048;-76
2022/07/31 07:15:59;;;;;;;21.50;16.25;;;26.50;99.90;;;;;;5019473;28;20049;-75
2022/07/31 07:18:29;;;;;;;20.65;14.45;;;26.60;99.90;;;;;;5025415;28;20062;-76
2022/07/31 07:20:58;;;;;;;19.10;14.85;;;26.50;99.90;;;;;;5056668;28;20072;-75
2022/07/31 07:23:26;;;;;;;21.70;16.05;;;26.60;99.90;;;;;;5030121;28;20041;-75
2022/07/31 07:26:20;;;;;;;25.25;16.65;;;26.50;99.90;;;;;;5027293;28;20069;-76
2022/07/31 07:28:47;;;;;;;19.25;17.00;;;26.20;99.90;;;;;;5018632;28;20053;-74
2022/07/31 07:31:14;;;;;;;18.58;15.30;;;26.30;99.90;;;;;;5036792;28;20504;-75
2022/07/31 07:33:44;;;;;;;17.88;14.73;;;26.50;99.90;;;;;;5019844;28;20056;-75
2022/07/31 07:36:15;;;;;;;18.80;14.65;;;26.70;99.90;;;;;;5019487;28;20038;-76
2022/07/31 07:38:43;;;;;;;16.58;14.30;;;26.70;99.90;;;;;;5018566;28;20057;-75
2022/07/31 07:41:10;;;;;;;22.77;17.17;;;26.70;99.90;;;;;;5018859;28;20041;-74
2022/07/31 07:43:38;;;;;;;22.08;18.08;;;26.90;99.90;;;;;;5019685;28;20065;-75
2022/07/31 07:46:05;;;;;;;18.55;16.65;;;27.00;99.90;;;;;;5019448;28;20496;-75
2022/07/31 07:48:33;;;;;;;20.52;16.65;;;26.70;99.90;;;;;;5018586;28;20136;-73
2022/07/31 07:51:22;;;;;;;20.35;16.45;;;26.40;99.90;;;;;;5035576;28;20064;-76
2022/07/31 07:53:57;;;;;;;23.25;19.35;;;26.60;99.90;;;;;;5019034;28;20520;-76
2022/07/31 07:56:44;;;;;;;32.72;18.55;;;26.70;99.90;;;;;;5036459;28;20044;-75
2022/07/31 07:59:23;;;;;;;23.45;18.30;;;27.10;99.90;;;;;;5035778;28;20124;-75
2022/07/31 08:02:19;;;;;;;22.55;17.25;;;27.40;99.90;;;;;;5035284;28;20088;-76
2022/07/31 08:04:48;;;;;;;20.92;15.77;;;27.60;99.90;;;;;;5017769;28;20052;-75
2022/07/31 08:07:17;;;;;;;28.70;21.35;;;27.40;99.90;;;;;;5017980;28;20057;-75
2022/07/31 08:09:44;;;;;;;21.40;18.60;;;27.50;99.90;;;;;;5018903;28;20049;-75
2022/07/31 08:12:12;;;;;;;21.83;17.27;;;27.50;99.90;;;;;;5037278;28;20080;-75
2022/07/31 08:14:58;;;;;;;20.40;16.35;;;27.40;99.90;;;;;;5037188;28;20052;-76
2022/07/31 08:17:43;;;;;;;29.50;20.90;;;27.60;99.90;;;;;;5042412;28;20095;-75
2022/07/31 08:20:12;;;;;;;27.27;20.55;;;27.30;99.90;;;;;;5030028;28;20069;-74
2022/07/31 08:22:41;;;;;;;26.30;19.40;;;27.30;99.90;;;;;;5041178;28;20042;-75
2022/07/31 08:25:09;;;;;;;22.55;18.08;;;27.40;99.90;;;;;;5031298;28;20049;-75
2022/07/31 08:27:37;;;;;;;27.58;18.33;;;27.40;99.90;;;;;;5038590;28;20061;-75
2022/07/31 08:30:05;;;;;;;25.08;16.92;;;27.40;99.90;;;;;;5036368;28;20041;-75
2022/07/31 08:32:34;;;;;;;24.52;18.30;;;27.20;99.90;;;;;;5037946;28;20049;-75
2022/07/31 08:35:08;;;;;;;23.67;14.30;;;27.30;99.90;;;;;;5037070;28;20053;-76
2022/07/31 08:37:36;;;;;;;25.33;15.35;;;27.60;99.90;;;;;;5016585;28;20580;-76
2022/07/31 08:40:05;;;;;;;28.55;15.27;;;28.10;99.90;;;;;;5017991;28;20050;-75
2022/07/31 08:42:32;;;;;;;20.25;13.13;;;28.70;99.90;;;;;;5019370;28;20053;-75
2022/07/31 08:45:00;;;;;;;19.13;13.75;;;28.80;99.90;;;;;;5019736;28;20052;-75
2022/07/31 08:47:33;;;;;;;19.25;13.77;;;29.00;99.90;;;;;;5019421;28;20049;-75
2022/07/31 08:50:09;;;;;;;17.15;12.30;;;28.90;99.90;;;;;;5019557;28;20136;-75
2022/07/31 08:52:39;;;;;;;16.77;11.68;;;28.70;99.90;;;;;;5018487;28;20064;-75
2022/07/31 08:55:19;;;;;;;14.55;10.32;;;28.50;99.90;;;;;;5015940;28;20096;-75
2022/07/31 08:57:48;;;;;;;19.23;12.27;;;28.40;99.90;;;;;;5031229;28;20099;-75
2022/07/31 09:00:18;;;;;;;16.88;11.32;;;28.50;99.90;;;;;;5050378;28;20060;-74
2022/07/31 09:02:46;;;;;;;13.93;8.68;;;28.80;99.90;;;;;;5014709;28;20049;-76
2022/07/31 09:05:23;;;;;;;17.65;10.55;;;28.90;99.90;;;;;;5015720;28;20052;-75
2022/07/31 09:07:53;;;;;;;12.15;8.90;;;29.30;99.90;;;;;;5014588;28;20046;-76
2022/07/31 09:10:27;;;;;;;12.68;6.57;;;29.80;99.80;;;;;;5014640;28;20050;-76
2022/07/31 09:12:56;;;;;;;10.07;6.38;;;29.60;98.70;;;;;;5013820;28;20046;-76
2022/07/31 09:15:27;;;;;;;8.50;6.13;;;28.60;98.90;;;;;;5046788;28;20052;-76
2022/07/31 09:17:56;;;;;;;9.65;6.68;;;28.30;99.90;;;;;;5047621;28;20222;-75
2022/07/31 09:20:25;;;;;;;8.02;5.45;;;28.20;99.90;;;;;;5049757;28;20390;-75
2022/07/31 09:23:04;;;;;;;9.38;6.25;;;27.60;99.90;;;;;;5018615;28;20080;-75
2022/07/31 09:25:33;;;;;;;8.10;6.22;;;27.40;99.90;;;;;;5018031;28;20527;-76
2022/07/31 09:28:05;;;;;;;7.30;4.80;;;27.60;99.90;;;;;;5019039;28;20049;-75
2022/07/31 09:30:34;;;;;;;8.05;5.45;;;27.40;99.90;;;;;;5019136;28;20050;-75
2022/07/31 09:33:38;;;;;;;7.45;6.15;;;27.10;99.90;;;;;;4993388;28;20123;-75
2022/07/31 09:36:24;;;;;;;8.30;6.80;;;27.20;99.90;;;;;;5017760;28;20538;-75
2022/07/31 09:38:59;;;;;;;6.80;5.53;;;27.20;99.90;;;;;;5031084;22;20112;-79
2022/07/31 09:41:34;;;;;;;7.03;5.88;;;27.10;99.90;;;;;;5011812;28;20049;-81
2022/07/31 09:44:05;;;;;;;9.35;6.60;;;27.10;99.90;;;;;;5002250;28;20058;-81
2022/07/31 09:46:39;;;;;;;11.75;8.43;;;27.20;99.90;;;;;;5019090;28;20046;-80
2022/07/31 09:49:07;;;;;;;11.57;8.60;;;27.10;99.90;;;;;;5018706;28;20046;-80
2022/07/31 09:51:39;;;;;;;8.73;5.93;;;27.20;99.90;;;;;;5000714;28;20057;-80
2022/07/31 09:54:19;;;;;;;8.88;6.65;;;27.50;99.90;;;;;;5007571;28;20456;-79
2022/07/31 09:57:15;;;;;;;8.48;5.50;;;27.80;99.90;;;;;;5023149;28;20083;-81
2022/07/31 09:59:51;;;;;;;7.80;6.90;;;27.80;99.90;;;;;;5010324;28;20081;-80
2022/07/31 10:02:20;;;;;;;6.15;4.15;;;27.90;99.90;;;;;;5011760;28;20076;-80
2022/07/31 10:04:50;;;;;;;8.98;6.75;;;28.00;99.90;;;;;;5020174;28;20129;-80
2022/07/31 10:07:18;;;;;;;11.95;8.65;;;27.80;99.90;;;;;;5002331;28;20492;-82
2022/07/31 10:09:47;;;;;;;7.53;5.43;;;28.00;99.90;;;;;;5019521;28;20052;-81
2022/07/31 10:12:21;;;;;;;14.05;7.88;;;27.80;99.90;;;;;;5000817;28;20038;-80
2022/07/31 10:14:53;;;;;;;6.97;3.75;;;27.70;99.90;;;;;;5016940;28;20070;-79
2022/07/31 10:17:27;;;;;;;3.60;2.47;;;27.80;99.60;;;;;;5000794;28;20485;-78
2022/07/31 10:20:35;;;;;;;14.82;9.88;;;27.90;98.00;;;;;;4986336;28;20102;-82
2022/07/31 10:23:29;;;;;;;5.72;3.30;;;28.50;97.90;;;;;;5011689;28;20053;-80
2022/07/31 10:26:01;;;;;;;6.30;4.18;;;28.80;96.00;;;;;;5009081;28;20046;-80
2022/07/31 10:28:31;;;;;;;3.97;3.38;;;29.20;94.70;;;;;;5035195;28;20046;-82
2022/07/31 10:30:58;;;;;;;4.60;2.60;;;29.50;92.70;;;;;;5053749;28;20041;-80
2022/07/31 10:33:26;;;;;;;7.10;3.50;;;29.80;91.30;;;;;;5032633;28;20076;-80
2022/07/31 10:36:14;;;;;;;;;;;29.50;91.20;;;;;;5020402;28;20128;-79
2022/07/31 10:39:08;;;;;;;4.45;2.78;;;29.10;91.30;;;;;;5000993;28;19944;-80
2022/07/31 10:41:57;;;;;;;8.45;5.97;;;28.80;91.90;;;;;;5005526;28;20108;-80
2022/07/31 10:44:36;;;;;;;5.78;3.80;;;28.30;92.30;;;;;;5000180;28;20081;-82
2022/07/31 10:47:29;;;;;;;10.77;5.63;;;28.40;92.20;;;;;;4992135;28;20069;-81
2022/07/31 10:50:07;;;;;;;7.40;4.65;;;28.50;92.30;;;;;;5008614;28;20411;-77
2022/07/31 10:52:55;;;;;;;3.50;2.70;;;28.50;92.10;;;;;;5006169;28;20461;-77
2022/07/31 10:55:34;;;;;;;4.80;3.70;;;28.70;92.40;;;;;;5016542;28;20085;-74
2022/07/31 10:58:28;;;;;;;6.13;4.90;;;28.80;90.80;;;;;;4982906;28;20137;-77
2022/07/31 11:01:07;;;;;;;5.32;3.70;;;29.30;88.80;;;;;;4996465;28;20531;-75
2022/07/31 11:03:43;;;;;;;24.63;16.75;;;29.40;86.80;;;;;;5001263;28;20069;-75
2022/07/31 11:06:39;;;;;;;60.78;52.63;;;29.20;87.50;;;;;;4994013;28;20516;-80
2022/07/31 11:09:27;;;;;;;10.07;6.03;;;28.90;88.10;;;;;;5015689;28;20093;-74
2022/07/31 11:12:18;;;;;;;7.93;5.28;;;28.50;88.70;;;;;;4999535;28;20482;-75
2022/07/31 11:14:50;;;;;;;5.80;3.85;;;28.10;89.10;;;;;;4999437;28;20058;-75
2022/07/31 11:17:45;;;;;;;11.73;7.82;;;28.20;90.00;;;;;;4990939;28;20092;-74
2022/07/31 11:20:32;;;;;;;3.47;2.90;;;28.30;90.00;;;;;;4998113;28;20061;-74
2022/07/31 11:23:02;;;;;;;5.00;3.63;;;28.10;90.00;;;;;;4998831;28;20054;-75
2022/07/31 11:25:32;;;;;;;4.10;2.92;;;28.10;90.30;;;;;;4998674;28;20042;-75
2022/07/31 11:28:11;;;;;;;4.07;3.08;;;28.10;90.00;;;;;;5000036;28;20074;-74
2022/07/31 11:30:51;;;;;;;6.70;3.22;;;28.20;90.10;;;;;;5019219;28;20049;-74
2022/07/31 11:33:45;;;;;;;5.72;3.40;;;28.10;90.10;;;;;;5021516;28;20049;-74
2022/07/31 11:36:14;;;;;;;11.32;5.70;;;28.30;90.30;;;;;;5008158;28;20065;-75
2022/07/31 11:38:44;;;;;;;9.90;6.40;;;28.40;89.10;;;;;;5007270;28;20050;-75
2022/07/31 11:41:12;;;;;;;3.60;2.60;;;28.60;88.20;;;;;;5001036;28;20112;-75
2022/07/31 11:43:44;;;;;;;5.00;2.13;;;28.80;86.00;;;;;;5016431;28;20041;-75
2022/07/31 11:46:11;;;;;;;4.82;3.40;;;28.50;81.10;;;;;;5017843;28;20034;-76
2022/07/31 11:48:39;;;;;;;5.90;3.03;;;28.70;82.00;;;;;;5018023;28;20045;-74
2022/07/31 11:51:08;;;;;;;6.38;5.03;;;28.90;80.80;;;;;;5019417;28;20483;-74
2022/07/31 11:53:41;;;;;;;5.57;4.00;;;29.20;80.40;;;;;;5020819;28;20041;-80
2022/07/31 11:56:08;;;;;;;6.47;3.45;;;29.40;78.20;;;;;;5007280;28;20417;-75
2022/07/31 11:58:36;;;;;;;6.78;2.40;;;29.40;78.20;;;;;;5010966;28;20073;-80
2022/07/31 12:01:05;;;;;;;4.05;2.58;;;29.20;74.90;;;;;;5017442;28;20041;-73
2022/07/31 12:03:35;;;;;;;3.63;1.77;;;29.20;74.20;;;;;;4999809;28;20077;-76
2022/07/31 12:06:03;;;;;;;4.90;2.35;;;29.00;74.40;;;;;;5020126;28;20045;-74
2022/07/31 12:08:34;;;;;;;5.53;3.55;;;28.80;73.90;;;;;;5017166;28;20440;-75
2022/07/31 12:11:04;;;;;;;5.10;2.92;;;28.70;75.00;;;;;;5017887;28;20046;-76
2022/07/31 12:13:32;;;;;;;6.10;3.58;;;28.70;75.20;;;;;;4998747;28;20065;-75
2022/07/31 12:16:01;;;;;;;4.05;2.95;;;28.90;75.40;;;;;;5017869;28;20042;-76
2022/07/31 12:18:30;;;;;;;9.55;3.92;;;29.10;71.90;;;;;;5014899;28;20113;-75
2022/07/31 12:21:00;;;;;;;7.82;5.07;;;29.20;72.40;;;;;;5017610;28;20069;-75
2022/07/31 12:23:41;;;;;;;8.73;6.03;;;29.50;72.30;;;;;;5032424;28;20048;-75
2022/07/31 12:26:08;;;;;;;7.70;4.95;;;29.70;71.60;;;;;;4996819;28;20500;-75
2022/07/31 12:28:36;;;;;;;7.35;4.53;;;29.80;70.50;;;;;;5027325;28;20037;-74
2022/07/31 12:31:03;;;;;;;7.05;2.88;;;29.50;70.10;;;;;;5022316;28;20048;-76
2022/07/31 12:33:41;;;;;;;4.82;3.45;;;29.40;69.90;;;;;;5028518;28;20049;-75
2022/07/31 12:36:17;;;;;;;4.15;3.22;;;29.40;70.50;;;;;;5011310;28;20050;-75
2022/07/31 12:38:47;;;;;;;2.97;2.30;;;29.40;70.90;;;;;;5028767;28;20053;-75
2022/07/31 12:41:14;;;;;;;3.10;2.45;;;29.10;71.50;;;;;;5023487;28;20045;-75
2022/07/31 12:43:42;;;;;;;9.00;4.03;;;29.20;71.80;;;;;;5008706;28;20042;-75
2022/07/31 12:46:10;;;;;;;5.82;2.63;;;29.20;69.90;;;;;;5031643;28;20096;-75
2022/07/31 12:48:37;;;;;;;4.38;3.30;;;29.40;66.50;;;;;;5021511;28;20037;-76
2022/07/31 12:51:05;;;;;;;4.40;2.80;;;29.40;66.30;;;;;;5019707;28;20095;-75
2022/07/31 12:53:32;;;;;;;4.45;3.70;;;29.60;66.30;;;;;;5023866;28;20069;-75
2022/07/31 12:56:01;;;;;;;5.05;3.47;;;29.70;66.10;;;;;;5021111;28;20049;-81
2022/07/31 12:58:29;;;;;;;7.00;3.92;;;29.70;65.30;;;;;;5004731;28;20052;-74
2022/07/31 13:00:56;;;;;;;5.80;2.90;;;29.80;66.60;;;;;;5020135;28;20115;-76
2022/07/31 13:03:23;;;;;;;5.55;3.42;;;29.80;67.00;;;;;;5022867;28;20037;-76
2022/07/31 13:05:51;;;;;;;4.93;2.83;;;30.10;67.30;;;;;;5023572;28;20141;-76
2022/07/31 13:08:18;;;;;;;4.53;2.80;;;30.30;65.90;;;;;;5009280;28;20106;-76
2022/07/31 13:10:47;;;;;;;6.40;2.90;;;30.30;65.80;;;;;;5006886;28;20486;-75